Halifax / CFB Shearwater Heliport


Codes: CYAW/YAW
Name: Halifax / CFB Shearwater Heliport
City: Halifax
Country: Canada
Elevation: 144 ft.
Wikipedia:

Photos at Halifax / CFB Shearwater Heliport


   Photos courtesy of SpottingLog. You can add your own sightings and photos by signing up for a free trial today.



No photos found.

Weather at Halifax / CFB Shearwater Heliport


Time (UTC)DescriptionTempratureWindCloud coverageVisibilityPressureHumidity
21-Jun-2024 12:00Overcast Clouds21°C9 mph, N100%10000m1018hPa67%
21-Jun-2024 15:00Overcast Clouds21°C9 mph, N98%10000m1019hPa60%
21-Jun-2024 18:00Broken Clouds23°C2 mph, E78%10000m1019hPa47%
21-Jun-2024 21:00Scattered Clouds23°C4 mph, W30%10000m1019hPa42%
22-Jun-2024 00:00Broken Clouds17°C2 mph, NW66%10000m1020hPa71%
22-Jun-2024 03:00Overcast Clouds14°C2 mph, N86%10000m1021hPa77%
22-Jun-2024 06:00Overcast Clouds14°C0 mph, SW93%10000m1020hPa82%
22-Jun-2024 09:00Overcast Clouds13°C0 mph, NW100%10000m1021hPa84%
22-Jun-2024 12:00Overcast Clouds18°C4 mph, S100%10000m1020hPa68%
22-Jun-2024 15:00Overcast Clouds21°C9 mph, SW100%10000m1020hPa55%
22-Jun-2024 18:00Overcast Clouds19°C11 mph, SW100%10000m1019hPa69%
22-Jun-2024 21:00Light Rain14°C9 mph, SW100%10000m1018hPa98%
23-Jun-2024 00:00Light Rain14°C4 mph, N100%0m1017hPa100%
23-Jun-2024 03:00Light Rain13°C9 mph, SE100%1189m1016hPa99%
23-Jun-2024 06:00Moderate Rain13°C11 mph, E100%289m1013hPa99%
23-Jun-2024 09:00Heavy Intensity Rain12°C13 mph, E100%710m1011hPa99%
23-Jun-2024 12:00Light Rain12°C11 mph, NE100%7841m1011hPa99%
23-Jun-2024 15:00Overcast Clouds13°C7 mph, NE100%8040m1009hPa98%
23-Jun-2024 18:00Overcast Clouds14°C4 mph, E100%10000m1009hPa92%
23-Jun-2024 21:00Light Rain13°C7 mph, SE100%4738m1008hPa99%
24-Jun-2024 00:00Light Rain12°C7 mph, SE100%461m1007hPa99%
24-Jun-2024 03:00Moderate Rain14°C4 mph, SE100%98m1005hPa99%
24-Jun-2024 06:00Light Rain14°C4 mph, SW100%135m1004hPa99%
24-Jun-2024 09:00Moderate Rain13°C4 mph, NE100%398m1005hPa99%
24-Jun-2024 12:00Moderate Rain12°C11 mph, E100%449m1007hPa99%
24-Jun-2024 15:00Light Rain12°C13 mph, E100%532m1008hPa99%
24-Jun-2024 18:00Moderate Rain12°C13 mph, E100%651m1008hPa99%
24-Jun-2024 21:00Light Rain13°C11 mph, E100%646m1007hPa99%
25-Jun-2024 00:00Light Rain13°C11 mph, E100%154m1007hPa99%
25-Jun-2024 03:00Light Rain13°C9 mph, E100%80m1006hPa99%
25-Jun-2024 06:00Moderate Rain15°C7 mph, SE100%56m1003hPa99%
25-Jun-2024 09:00Light Rain14°C4 mph, S100%60m1003hPa100%
25-Jun-2024 12:00Overcast Clouds14°C9 mph, N100%0m1002hPa99%
25-Jun-2024 15:00Overcast Clouds16°C11 mph, SW100%10000m1001hPa87%
25-Jun-2024 18:00Overcast Clouds15°C7 mph, W100%10000m1001hPa88%
25-Jun-2024 21:00Overcast Clouds16°C11 mph, NW99%10000m1003hPa89%
26-Jun-2024 00:00Overcast Clouds14°C13 mph, NW100%10000m1005hPa90%
26-Jun-2024 03:00Overcast Clouds14°C11 mph, NW100%10000m1007hPa91%
26-Jun-2024 06:00Overcast Clouds14°C13 mph, NW100%10000m1008hPa90%
26-Jun-2024 09:00Broken Clouds14°C9 mph, NW81%10000m1011hPa92%